createdAt,value
2023-04-02T00:00:18.882Z,6.40
2023-04-02T00:02:57.346Z,6.30
2023-04-02T00:05:54.841Z,6.30
2023-04-02T00:08:27.963Z,6.30
2023-04-02T00:10:57.854Z,6.30
2023-04-02T00:13:33.587Z,6.20
2023-04-02T00:16:04.363Z,6.20
2023-04-02T00:18:35.277Z,6.10
2023-04-02T00:21:12.096Z,6.10
2023-04-02T00:23:43.860Z,6.00
2023-04-02T00:26:26.673Z,6.00
2023-04-02T00:28:54.653Z,6.00
2023-04-02T00:31:23.285Z,6.00
2023-04-02T00:33:52.058Z,6.00
2023-04-02T00:36:22.102Z,6.00
2023-04-02T00:38:52.142Z,6.00
2023-04-02T00:41:24.329Z,5.90
2023-04-02T00:43:54.587Z,5.90
2023-04-02T00:46:30.090Z,5.90
2023-04-02T00:49:02.264Z,6.00
2023-04-02T00:51:36.479Z,5.90
2023-04-02T00:54:08.160Z,6.00
2023-04-02T00:56:41.856Z,6.00
2023-04-02T00:59:20.656Z,6.00
2023-04-02T01:01:55.224Z,6.00
2023-04-02T01:04:34.059Z,6.10
2023-04-02T01:07:06.560Z,6.00
2023-04-02T01:09:49.841Z,6.00
2023-04-02T01:12:49.399Z,6.00
2023-04-02T01:15:21.399Z,6.00
2023-04-02T01:18:09.672Z,6.00
2023-04-02T01:21:06.500Z,6.00
2023-04-02T01:23:42.053Z,6.00
2023-04-02T01:26:17.950Z,6.00
2023-04-02T01:28:57.866Z,5.90
2023-04-02T01:31:27.402Z,6.00
2023-04-02T01:33:56.594Z,6.00
2023-04-02T01:36:34.385Z,6.00
2023-04-02T01:39:09.760Z,6.10
2023-04-02T01:41:44.869Z,6.00
2023-04-02T01:44:19.983Z,6.00
2023-04-02T01:46:49.995Z,6.00
2023-04-02T01:49:22.245Z,6.00
2023-04-02T01:51:54.883Z,6.10
2023-04-02T01:54:23.942Z,6.10
2023-04-02T01:56:52.527Z,6.10
2023-04-02T01:59:24.160Z,6.00
2023-04-02T02:01:58.553Z,6.00
2023-04-02T02:04:27.053Z,5.90
2023-04-02T02:06:55.843Z,5.90
2023-04-02T02:09:27.953Z,5.80
2023-04-02T02:11:57.737Z,5.80
2023-04-02T02:14:28.556Z,5.80
2023-04-02T02:17:01.958Z,5.80
2023-04-02T02:19:34.012Z,5.90
2023-04-02T02:22:10.277Z,5.80
2023-04-02T02:24:38.712Z,5.90
2023-04-02T02:27:26.888Z,5.80
2023-04-02T02:29:59.126Z,5.80
2023-04-02T02:32:30.922Z,5.80
2023-04-02T02:35:04.385Z,5.80
2023-04-02T02:37:38.789Z,5.80
2023-04-02T02:40:12.508Z,5.70
2023-04-02T02:42:44.893Z,5.60
2023-04-02T02:45:19.047Z,5.60
2023-04-02T02:47:48.309Z,5.60
2023-04-02T02:50:24.491Z,5.60
2023-04-02T02:52:54.512Z,5.60
2023-04-02T02:55:27.497Z,5.70
2023-04-02T02:58:00.990Z,5.70
2023-04-02T03:00:30.497Z,5.70
2023-04-02T03:03:05.508Z,5.70
2023-04-02T03:05:33.775Z,5.80
2023-04-02T03:08:05.738Z,5.90
2023-04-02T03:10:40.419Z,5.90
2023-04-02T03:13:19.877Z,5.90
2023-04-02T03:15:59.675Z,5.90
2023-04-02T03:18:37.343Z,5.90
2023-04-02T03:21:14.525Z,5.90
2023-04-02T03:23:46.892Z,5.90
2023-04-02T03:26:19.222Z,6.00
2023-04-02T03:29:00.798Z,6.00
2023-04-02T03:31:35.580Z,6.00
2023-04-02T03:34:09.422Z,6.00
2023-04-02T03:36:43.725Z,6.00
2023-04-02T03:39:18.100Z,6.00
2023-04-02T03:41:52.068Z,6.00
2023-04-02T03:44:27.182Z,6.00
2023-04-02T03:46:59.639Z,6.00
2023-04-02T03:49:35.433Z,5.90
2023-04-02T03:52:07.269Z,5.80
2023-04-02T03:54:35.586Z,5.80
2023-04-02T03:57:04.427Z,5.80
2023-04-02T03:59:39.652Z,5.80
2023-04-02T04:02:20.954Z,5.80
2023-04-02T04:04:51.396Z,5.80
2023-04-02T04:07:29.014Z,5.90
2023-04-02T04:09:57.958Z,5.90
2023-04-02T04:12:31.134Z,5.90
2023-04-02T04:15:03.025Z,5.90
2023-04-02T04:17:38.556Z,5.90
2023-04-02T04:20:21.910Z,5.90
2023-04-02T04:22:55.706Z,5.90
2023-04-02T04:25:29.495Z,5.90
2023-04-02T04:28:07.692Z,5.90
2023-04-02T04:30:47.596Z,5.90
2023-04-02T04:33:22.978Z,5.90
2023-04-02T04:35:54.779Z,6.00
2023-04-02T04:38:32.814Z,5.90
2023-04-02T04:41:06.184Z,5.90
2023-04-02T04:43:43.111Z,5.90
2023-04-02T04:46:14.357Z,5.90
2023-04-02T04:48:54.274Z,5.90
2023-04-02T04:51:26.268Z,5.90
2023-04-02T04:53:56.195Z,5.90
2023-04-02T04:56:27.842Z,5.90
2023-04-02T04:59:03.173Z,5.90
2023-04-02T05:01:38.104Z,5.90
2023-04-02T05:04:14.275Z,5.90
2023-04-02T05:06:45.853Z,5.90
2023-04-02T05:09:21.033Z,6.00
2023-04-02T05:11:53.876Z,6.00
2023-04-02T05:14:30.506Z,6.10
2023-04-02T05:17:04.381Z,6.10
2023-04-02T05:19:40.782Z,6.20
2023-04-02T05:22:20.260Z,6.20
2023-04-02T05:25:08.282Z,6.20
2023-04-02T05:27:42.906Z,6.20
2023-04-02T05:30:31.717Z,6.20
2023-04-02T05:33:05.138Z,6.20
2023-04-02T05:35:37.969Z,6.20
2023-04-02T05:38:07.598Z,6.20
2023-04-02T05:40:41.076Z,6.20
2023-04-02T05:43:11.768Z,6.20
2023-04-02T05:45:43.130Z,6.20
2023-04-02T05:48:17.610Z,6.20
2023-04-02T05:50:51.175Z,6.20
2023-04-02T05:53:24.338Z,6.30
2023-04-02T05:55:57.794Z,6.30
2023-04-02T05:58:36.286Z,6.30
2023-04-02T06:01:15.503Z,6.30
2023-04-02T06:03:50.627Z,6.30
2023-04-02T06:06:28.299Z,6.40
2023-04-02T06:08:59.973Z,6.40
2023-04-02T06:11:32.170Z,6.50
2023-04-02T06:14:00.852Z,6.50
2023-04-02T06:16:31.934Z,6.50
2023-04-02T06:19:00.372Z,6.60
2023-04-02T06:21:29.783Z,6.60
2023-04-02T06:24:03.353Z,6.60
2023-04-02T06:26:35.159Z,6.70
2023-04-02T06:29:08.077Z,6.70
2023-04-02T06:31:40.067Z,6.70
2023-04-02T06:34:15.018Z,6.80
2023-04-02T06:36:45.583Z,6.90
2023-04-02T06:39:20.424Z,6.90
2023-04-02T06:41:53.125Z,6.90
2023-04-02T06:44:23.855Z,6.90
2023-04-02T06:46:54.493Z,6.90
2023-04-02T06:49:26.206Z,6.90
2023-04-02T06:51:57.429Z,7.00
2023-04-02T06:54:25.575Z,7.10
2023-04-02T06:56:56.230Z,7.10
2023-04-02T06:59:25.293Z,7.20
2023-04-02T07:01:57.394Z,7.20
2023-04-02T07:04:25.768Z,7.30
2023-04-02T07:06:55.209Z,7.30
2023-04-02T07:09:23.784Z,7.30
2023-04-02T07:11:51.761Z,7.30
2023-04-02T07:14:19.735Z,7.30
2023-04-02T07:16:47.801Z,7.40
2023-04-02T07:19:21.165Z,7.40
2023-04-02T07:21:49.194Z,7.50
2023-04-02T07:24:18.522Z,7.60
2023-04-02T07:26:48.173Z,7.60
2023-04-02T07:29:17.535Z,7.60
2023-04-02T07:31:46.145Z,7.60
2023-04-02T07:34:14.236Z,7.70
2023-04-02T07:36:42.236Z,7.70
2023-04-02T07:39:10.338Z,7.80
2023-04-02T07:41:54.130Z,7.80
2023-04-02T07:44:22.229Z,7.90
2023-04-02T07:46:50.314Z,7.90
2023-04-02T07:49:18.445Z,8.00
2023-04-02T07:51:48.911Z,8.00
2023-04-02T07:54:16.908Z,8.10
2023-04-02T07:56:44.913Z,8.00
2023-04-02T07:59:14.365Z,8.00
2023-04-02T08:01:43.035Z,8.00
2023-04-02T08:04:19.357Z,7.90
2023-04-02T08:06:48.247Z,8.00
2023-04-02T08:09:17.177Z,8.00
2023-04-02T08:11:46.637Z,8.00
2023-04-02T08:14:16.319Z,8.00
2023-04-02T08:16:49.298Z,8.10
2023-04-02T08:19:18.344Z,8.10
2023-04-02T08:21:48.094Z,8.20
2023-04-02T08:24:19.044Z,8.20
2023-04-02T08:26:47.609Z,8.30
2023-04-02T08:29:16.979Z,8.30
2023-04-02T08:31:44.988Z,8.30
2023-04-02T08:34:13.224Z,8.40
2023-04-02T08:36:44.965Z,8.50
2023-04-02T08:39:13.440Z,8.60
2023-04-02T08:41:46.325Z,8.60
2023-04-02T08:44:32.342Z,8.60
2023-04-02T08:47:04.335Z,8.50
2023-04-02T08:49:36.913Z,8.40
2023-04-02T08:52:05.193Z,8.40
2023-04-02T08:54:37.887Z,8.50
2023-04-02T08:57:09.085Z,8.50
2023-04-02T08:59:41.238Z,8.60
2023-04-02T09:02:28.060Z,8.60
2023-04-02T09:04:58.236Z,8.60
2023-04-02T09:07:28.026Z,8.60
2023-04-02T09:09:58.006Z,8.50
2023-04-02T09:12:28.877Z,8.60
2023-04-02T09:15:07.986Z,8.60
2023-04-02T09:17:50.519Z,8.60
2023-04-02T09:20:26.252Z,8.70
2023-04-02T09:22:56.574Z,8.80
2023-04-02T09:25:27.109Z,8.90
2023-04-02T09:27:57.210Z,9.00
2023-04-02T09:30:36.813Z,9.00
2023-04-02T09:33:07.801Z,9.10
2023-04-02T09:35:38.020Z,9.00
2023-04-02T09:38:22.040Z,8.80
2023-04-02T09:40:52.120Z,8.80
2023-04-02T09:43:21.893Z,8.60
2023-04-02T09:46:02.860Z,8.50
2023-04-02T09:48:33.887Z,8.60
2023-04-02T09:51:07.009Z,8.60
2023-04-02T09:53:36.701Z,8.70
2023-04-02T09:56:26.592Z,8.90
2023-04-02T09:59:04.885Z,9.00
2023-04-02T10:01:36.502Z,8.80
2023-04-02T10:04:06.637Z,8.80
2023-04-02T10:06:35.781Z,8.70
2023-04-02T10:09:28.480Z,8.70
2023-04-02T10:11:58.392Z,8.90
2023-04-02T10:14:31.030Z,9.00
2023-04-02T10:17:06.895Z,9.10
2023-04-02T10:19:38.663Z,9.30
2023-04-02T10:22:12.951Z,9.40
2023-04-02T10:24:41.336Z,9.40
2023-04-02T10:27:22.606Z,9.50
2023-04-02T10:30:03.959Z,9.60
2023-04-02T10:32:38.524Z,9.60
2023-04-02T10:35:15.826Z,9.70
2023-04-02T10:38:09.297Z,9.70
2023-04-02T10:40:40.942Z,9.70
2023-04-02T10:43:44.865Z,9.70
2023-04-02T10:46:24.460Z,9.70
2023-04-02T10:49:05.462Z,9.70
2023-04-02T10:51:40.366Z,9.60
2023-04-02T10:54:21.435Z,9.60
2023-04-02T10:56:53.912Z,9.60
2023-04-02T10:59:26.091Z,9.70
2023-04-02T11:01:58.270Z,9.80
2023-04-02T11:04:31.983Z,10.00
2023-04-02T11:07:13.291Z,10.20
2023-04-02T11:09:45.647Z,10.20
2023-04-02T11:12:23.074Z,10.20
2023-04-02T11:14:52.633Z,10.30
2023-04-02T11:17:21.920Z,10.30
2023-04-02T11:19:51.327Z,10.30
2023-04-02T11:22:22.243Z,10.40
2023-04-02T11:24:52.533Z,10.40
2023-04-02T11:27:26.425Z,10.40
2023-04-02T11:30:06.135Z,10.30
2023-04-02T11:32:40.618Z,10.10
2023-04-02T11:35:36.516Z,9.80
2023-04-02T11:38:43.418Z,9.70
2023-04-02T11:41:11.406Z,9.70
2023-04-02T11:43:52.965Z,9.80
2023-04-02T11:46:42.847Z,9.90
2023-04-02T11:49:37.131Z,10.10
2023-04-02T11:52:24.916Z,10.30
2023-04-02T11:55:03.137Z,10.50
2023-04-02T11:57:52.568Z,10.70
2023-04-02T12:00:44.040Z,10.90
2023-04-02T12:03:32.116Z,10.90
2023-04-02T12:06:06.300Z,11.00
2023-04-02T12:08:57.045Z,11.00
2023-04-02T12:11:33.676Z,11.10
2023-04-02T12:14:02.065Z,11.20
2023-04-02T12:16:34.622Z,11.20
2023-04-02T12:19:03.448Z,11.10
2023-04-02T12:21:31.901Z,11.10
2023-04-02T12:24:01.914Z,11.20
2023-04-02T12:26:37.058Z,11.30
2023-04-02T12:29:26.099Z,11.40
2023-04-02T12:31:55.008Z,11.40
2023-04-02T12:34:25.537Z,11.50
2023-04-02T12:36:59.653Z,11.50
2023-04-02T12:39:29.662Z,11.40
2023-04-02T12:41:58.277Z,11.30
2023-04-02T12:44:27.879Z,11.30
2023-04-02T12:46:56.601Z,11.30
2023-04-02T12:49:35.720Z,11.20
2023-04-02T12:52:07.204Z,11.10
2023-04-02T12:54:39.204Z,11.00
2023-04-02T12:57:39.404Z,11.00
2023-04-02T13:00:35.999Z,11.20
2023-04-02T13:03:21.325Z,11.40
2023-04-02T13:05:55.069Z,11.60
2023-04-02T13:08:27.201Z,11.70
2023-04-02T13:10:58.970Z,11.70
2023-04-02T13:13:30.752Z,11.70
2023-04-02T13:16:04.684Z,11.80
2023-04-02T13:18:34.672Z,11.80
2023-04-02T13:21:04.054Z,11.80
2023-04-02T13:23:37.590Z,11.90
2023-04-02T13:26:18.857Z,12.00
2023-04-02T13:29:02.675Z,12.10
2023-04-02T13:31:32.053Z,12.20
2023-04-02T13:34:00.156Z,12.20
2023-04-02T13:36:29.321Z,12.20
2023-04-02T13:38:57.621Z,12.10
2023-04-02T13:41:29.044Z,12.00
2023-04-02T13:44:00.048Z,12.00
2023-04-02T13:46:30.089Z,11.90
2023-04-02T13:48:59.042Z,11.80
2023-04-02T13:51:37.164Z,11.80
2023-04-02T13:54:09.945Z,11.80
2023-04-02T13:56:39.292Z,11.70
2023-04-02T13:59:07.374Z,11.70
2023-04-02T14:01:35.577Z,11.60
2023-04-02T14:04:03.986Z,11.60
2023-04-02T14:06:52.373Z,11.60
2023-04-02T14:09:31.528Z,11.60
2023-04-02T14:12:10.648Z,11.60
2023-04-02T14:15:08.658Z,11.60
2023-04-02T14:17:48.870Z,11.40
2023-04-02T14:20:31.430Z,11.20
2023-04-02T14:23:20.482Z,11.10
2023-04-02T14:25:58.105Z,11.20
2023-04-02T14:28:38.133Z,11.20
2023-04-02T14:31:16.459Z,11.30
2023-04-02T14:33:52.729Z,11.20
2023-04-02T14:36:28.760Z,11.20
2023-04-02T14:39:02.184Z,11.10
2023-04-02T14:41:36.953Z,11.10
2023-04-02T14:44:08.379Z,11.20
2023-04-02T14:46:38.635Z,11.20
2023-04-02T14:49:18.434Z,11.10
2023-04-02T14:51:50.808Z,11.00
2023-04-02T14:54:27.212Z,10.90
2023-04-02T14:56:58.607Z,10.90
2023-04-02T14:59:32.866Z,10.80
2023-04-02T15:02:05.494Z,10.80
2023-04-02T15:04:38.210Z,10.70
2023-04-02T15:07:15.516Z,10.80
2023-04-02T15:09:50.190Z,10.80
2023-04-02T15:12:22.835Z,10.70
2023-04-02T15:14:56.450Z,10.60
2023-04-02T15:17:25.434Z,10.50
2023-04-02T15:20:03.452Z,10.40
2023-04-02T15:22:37.038Z,10.50
2023-04-02T15:25:18.847Z,10.60
2023-04-02T15:27:58.671Z,10.60
2023-04-02T15:30:31.187Z,10.50
2023-04-02T15:33:27.909Z,10.40
2023-04-02T15:36:01.956Z,10.40
2023-04-02T15:38:35.860Z,10.50
2023-04-02T15:41:10.552Z,10.60
2023-04-02T15:43:44.125Z,10.60
2023-04-02T15:46:22.281Z,10.60
2023-04-02T15:49:06.610Z,10.40
2023-04-02T15:51:46.403Z,10.30
2023-04-02T15:54:27.916Z,10.20
2023-04-02T15:57:05.831Z,10.20
2023-04-02T16:00:05.110Z,10.40
2023-04-02T16:03:02.503Z,10.60
2023-04-02T16:05:39.720Z,10.60
2023-04-02T16:08:40.171Z,10.40
2023-04-02T16:11:11.854Z,10.20
2023-04-02T16:13:41.641Z,10.00
2023-04-02T16:16:13.940Z,9.90
2023-04-02T16:18:55.869Z,9.90
2023-04-02T16:21:25.656Z,10.00
2023-04-02T16:23:54.758Z,10.20
2023-04-02T16:26:37.823Z,10.30
2023-04-02T16:29:29.893Z,10.30
2023-04-02T16:32:06.443Z,10.30
2023-04-02T16:34:42.420Z,10.20
2023-04-02T16:37:21.646Z,10.10
2023-04-02T16:39:56.827Z,10.00
2023-04-02T16:42:35.203Z,10.10
2023-04-02T16:45:20.511Z,10.10
2023-04-02T16:47:59.480Z,10.00
2023-04-02T16:50:38.335Z,10.00
2023-04-02T16:53:21.004Z,10.00
2023-04-02T16:56:29.005Z,10.00
2023-04-02T16:59:08.485Z,10.00
2023-04-02T17:01:44.512Z,9.80
2023-04-02T17:04:47.302Z,9.70
2023-04-02T17:07:30.739Z,9.70
2023-04-02T17:10:13.555Z,9.70
2023-04-02T17:12:46.269Z,9.60
2023-04-02T17:15:27.879Z,9.50
2023-04-02T17:17:58.894Z,9.40
2023-04-02T17:20:28.044Z,9.30
2023-04-02T17:22:57.653Z,9.20
2023-04-02T17:25:29.097Z,9.10
2023-04-02T17:27:57.888Z,9.00
2023-04-02T17:30:38.541Z,8.90
2023-04-02T17:33:12.414Z,8.80
2023-04-02T17:35:51.374Z,8.80
2023-04-02T17:38:27.092Z,8.70
2023-04-02T17:41:00.843Z,8.60
2023-04-02T17:43:39.693Z,8.50
2023-04-02T17:46:18.189Z,8.40
2023-04-02T17:48:49.005Z,8.30
2023-04-02T17:51:22.223Z,8.20
2023-04-02T17:54:04.575Z,8.20
2023-04-02T17:57:05.043Z,8.20
2023-04-02T17:59:51.842Z,8.10
2023-04-02T18:02:39.947Z,7.90
2023-04-02T18:05:18.027Z,7.80
2023-04-02T18:07:56.392Z,7.80
2023-04-02T18:10:33.140Z,7.70
2023-04-02T18:13:07.619Z,7.60
2023-04-02T18:15:56.116Z,7.60
2023-04-02T18:18:42.221Z,7.60
2023-04-02T18:21:20.191Z,7.50
2023-04-02T18:23:59.907Z,7.40
2023-04-02T18:26:38.310Z,7.40
2023-04-02T18:29:17.426Z,7.40
2023-04-02T18:31:51.820Z,7.30
2023-04-02T18:34:38.709Z,7.20
2023-04-02T18:37:20.326Z,7.20
2023-04-02T18:40:03.311Z,7.10
2023-04-02T18:42:48.833Z,7.10
2023-04-02T18:45:23.057Z,7.00
2023-04-02T18:48:02.089Z,6.90
2023-04-02T18:50:33.151Z,6.90
2023-04-02T18:53:12.286Z,6.90
2023-04-02T18:55:46.174Z,6.80
2023-04-02T18:58:18.981Z,6.80
2023-04-02T19:00:49.101Z,6.70
2023-04-02T19:03:24.479Z,6.60
2023-04-02T19:06:00.926Z,6.60
2023-04-02T19:08:33.884Z,6.60
2023-04-02T19:11:05.306Z,6.60
2023-04-02T19:13:34.836Z,6.60
2023-04-02T19:16:20.839Z,6.60
2023-04-02T19:19:01.203Z,6.50
2023-04-02T19:21:40.058Z,6.50
2023-04-02T19:24:29.023Z,6.40
2023-04-02T19:27:05.236Z,6.40
2023-04-02T19:29:44.957Z,6.40
2023-04-02T19:32:20.475Z,6.40
2023-04-02T19:34:57.663Z,6.40
2023-04-02T19:37:33.804Z,6.30
2023-04-02T19:40:18.677Z,6.30
2023-04-02T19:42:48.666Z,6.20
2023-04-02T19:45:28.971Z,6.20
2023-04-02T19:47:59.577Z,6.10
2023-04-02T19:50:27.647Z,6.10
2023-04-02T19:52:55.612Z,6.00
2023-04-02T19:55:23.757Z,6.00
2023-04-02T19:57:54.625Z,5.90
2023-04-02T20:00:27.231Z,5.90
2023-04-02T20:02:55.300Z,5.90
2023-04-02T20:05:23.346Z,5.80
2023-04-02T20:07:51.370Z,5.80
2023-04-02T20:10:20.847Z,5.70
2023-04-02T20:12:50.649Z,5.70
2023-04-02T20:15:20.304Z,5.70
2023-04-02T20:17:49.653Z,5.70
2023-04-02T20:20:17.728Z,5.70
2023-04-02T20:22:45.815Z,5.60
2023-04-02T20:25:13.907Z,5.70
2023-04-02T20:27:42.595Z,5.60
2023-04-02T20:30:11.452Z,5.50
2023-04-02T20:32:39.535Z,5.50
2023-04-02T20:35:09.788Z,5.40
2023-04-02T20:37:39.520Z,5.40
2023-04-02T20:40:09.960Z,5.40
2023-04-02T20:42:37.947Z,5.40
2023-04-02T20:45:08.422Z,5.40
2023-04-02T20:47:36.427Z,5.40
2023-04-02T20:50:05.136Z,5.30
2023-04-02T20:52:35.344Z,5.30
2023-04-02T20:55:03.535Z,5.30
2023-04-02T20:57:31.683Z,5.30
2023-04-02T21:00:02.220Z,5.20
2023-04-02T21:02:30.329Z,5.20
2023-04-02T21:05:01.794Z,5.10
2023-04-02T21:07:29.778Z,5.10
2023-04-02T21:09:59.190Z,5.00
2023-04-02T21:12:27.308Z,5.00
2023-04-02T21:14:59.212Z,5.00
2023-04-02T21:17:29.319Z,5.00
2023-04-02T21:19:57.334Z,5.00
2023-04-02T21:22:25.323Z,4.90
2023-04-02T21:24:53.321Z,4.90
2023-04-02T21:27:25.644Z,4.90
2023-04-02T21:29:53.719Z,4.90
2023-04-02T21:32:22.269Z,4.90
2023-04-02T21:34:50.494Z,4.80
2023-04-02T21:37:18.457Z,4.80
2023-04-02T21:39:46.718Z,4.80
2023-04-02T21:42:15.168Z,4.80
2023-04-02T21:44:44.536Z,4.70
2023-04-02T21:47:12.781Z,4.70
2023-04-02T21:49:40.862Z,4.70
2023-04-02T21:52:08.869Z,4.60
2023-04-02T21:54:36.809Z,4.60
2023-04-02T21:57:04.888Z,4.50
2023-04-02T21:59:33.075Z,4.50
2023-04-02T22:02:02.602Z,4.50
2023-04-02T22:04:30.770Z,4.50
2023-04-02T22:06:58.844Z,4.50
2023-04-02T22:09:27.582Z,4.50
2023-04-02T22:11:58.818Z,4.40
2023-04-02T22:14:27.387Z,4.40
2023-04-02T22:16:55.750Z,4.40
2023-04-02T22:19:25.320Z,4.30
2023-04-02T22:21:53.907Z,4.30
2023-04-02T22:24:23.001Z,4.30
2023-04-02T22:26:51.858Z,4.30
2023-04-02T22:29:19.859Z,4.30
2023-04-02T22:31:48.163Z,4.30
2023-04-02T22:34:16.391Z,4.30
2023-04-02T22:36:49.521Z,4.20
2023-04-02T22:39:17.609Z,4.20
2023-04-02T22:41:46.123Z,4.10
2023-04-02T22:44:17.208Z,4.20
2023-04-02T22:46:45.221Z,4.10
2023-04-02T22:49:18.889Z,4.10
2023-04-02T22:51:48.349Z,4.10
2023-04-02T22:54:16.486Z,4.00
2023-04-02T22:56:44.462Z,4.00
2023-04-02T22:59:12.425Z,4.00
2023-04-02T23:01:40.718Z,4.00
2023-04-02T23:04:09.246Z,4.00
2023-04-02T23:06:37.215Z,4.00
2023-04-02T23:09:06.705Z,4.00
2023-04-02T23:11:34.836Z,4.00
2023-04-02T23:14:02.807Z,3.90
2023-04-02T23:16:30.966Z,3.90
2023-04-02T23:18:59.057Z,3.90
2023-04-02T23:21:27.953Z,3.90
2023-04-02T23:23:56.247Z,3.90
2023-04-02T23:26:29.168Z,3.90
2023-04-02T23:28:58.305Z,3.90
2023-04-02T23:31:26.614Z,3.80
2023-04-02T23:33:55.113Z,3.80
2023-04-02T23:36:25.633Z,3.80
2023-04-02T23:38:55.488Z,3.80
2023-04-02T23:41:26.873Z,3.80
2023-04-02T23:43:55.912Z,3.80
2023-04-02T23:46:24.942Z,3.70
2023-04-02T23:48:53.029Z,3.70
2023-04-02T23:51:21.641Z,3.70
2023-04-02T23:53:50.313Z,3.70
2023-04-02T23:56:18.739Z,3.70
2023-04-02T23:58:48.212Z,3.70
